Tiempo atmosférico en la estación meteorológica de Vallehermoso, Alto Igualero, Santa Cruz de Tenerife (1475 m.)



Fecha
DESCASC
Temp. máxima en grados centígrados (hora)
DESCASC
Temp. mínima en grados centígrados (hora)
DESCASC
Temp. media en grados centígrados
DESCASC
Racha de viento máxima en m/sg (hora)
DESCASC
Velocidad máxima media en intervalos de 10 minutos(hora)
DESCASC
Precipitaciones diarias en mm
DESCASC
Precipitaciones de 00:00 a 06:00 en mm
DESCASC
Precipitaciones de 06:00 a 12:00 en mm
DESCASC
Precipitaciones de 12:00 a 18:00 en mm
DESCASC
Precipitaciones de 18:00 a 24:00 en mm
DESCASC
13-10-2019 19.4 (16:00) 9.3 (05:00) 14.3 9.17 (13:50) 8.33 (20:40) 0 0 0 0 0
12-10-2019 17.9 (17:20) 9.1 (05:10) 13.5 10.83 (01:10) 8.89 (01:30) 0.2 0 0.2 0 0
10-10-2019 17 (16:20) 10 (00:00) 13.5 10.28 (08:00) 8.33 (07:40) 0 0 0 0 0
09-10-2019 23.7 (13:40) 15.6 (00:00) 19.7 7.5 (07:50) 6.11 (07:50) 0 0 0 0 0
08-10-2019 26.7 (14:20) 18.9 (00:00) 22.8 12.5 (12:50) 8.06 (06:40) 0 0 0 0 0
07-10-2019 27.9 (15:00) 19.5 (00:00) 23.7 10.28 (11:50) 7.5 (12:10) 0 0 0 0 0
06-10-2019 23.8 (14:10) 11.1 (00:00) 17.4 18.33 (00:30) 15 (00:20) 0 0 0 0 0
05-10-2019 19.4 (00:00) 12 (21:30) 15.7 18.61 (18:50) 14.72 (21:50) 0 0 0 0 0
04-10-2019 22 (16:20) 19 (00:00) 20.5 17.22 (08:00) 13.33 (08:30) 0 0 0 0 0
03-10-2019 25.7 (13:10) 19.7 (00:00) 22.7 18.33 (18:30) 13.89 (21:40) 0 0 0 0 0
02-10-2019 33.5 (15:00) 23.6 (00:00) 28.6 10.56 (23:20) 8.61 (23:30) 0 0 0 0 0
01-10-2019 33.4 (15:10) 22.9 (00:00) 28.2 10.28 (00:10) 8.89 (00:10) 0 0 0 0 0
30-09-2019 33.4 (16:00) 23.1 (00:00) 28.3 10.83 (22:50) 9.44 (22:50) 0 0 0 0 0
29-09-2019 29.1 (14:30) 21 (00:00) 25.1 10.83 (01:20) 8.06 (00:50) 0 0 0 0 0
28-09-2019 28.2 (16:00) 19.8 (00:00) 24 12.22 (21:40) 9.17 (04:50) 0 0 0 0 0
27-09-2019 28.1 (17:20) 18.7 (00:00) 23.4 10.28 (11:30) 7.78 (21:00) 0 0 0 0 0
26-09-2019 26 (15:40) 12 (00:00) 19 10.28 (05:10) 7.78 (05:30) 0 0 0 0 0
25-09-2019 22.6 (18:20) 10.3 (00:00) 16.5 14.17 (09:10) 12.22 (08:50) 0 0 0 0 0
24-09-2019 16.2 (14:00) 9.6 (00:00) 12.9 12.5 (22:50) 10 (23:10) 0 0 0 0 0
23-09-2019 21.1 (16:00) 10.8 (00:00) 16 11.67 (00:50) 9.17 (02:00) 0.2 0.2 0 0 0
22-09-2019 20.1 (15:00) 13.4 (00:00) 16.8 13.89 (21:00) 11.94 (03:30) 0.8 0 0 0 0.8
21-09-2019 23.7 (15:20) 14 (00:00) 18.9 10 (23:50) 8.61 (23:10) 0 0 0 0 0
20-09-2019 23.8 (17:00) 13.5 (00:00) 18.6 10 (02:20) 8.61 (01:30) 0 0 0 0 0
19-09-2019 23.9 (17:00) 15.9 (00:00) 19.9 9.72 (22:00) 8.06 (23:59) 0 0 0 0 0
18-09-2019 25.2 (13:40) 18 (00:00) 21.6 7.5 (23:40) 6.94 (23:30) 0 0 0 0 0
17-09-2019 27.3 (15:10) 20.3 (00:00) 23.8 15 (10:00) 12.22 (08:10) 0 0 0 0 0
16-09-2019 27.2 (14:10) 14.3 (00:00) 20.8 20.83 (05:00) 17.22 (05:10) 8.8 7.6 0.6 0.6 0
15-09-2019 29.4 (16:10) 15.5 (00:00) 22.4 6.94 (05:50) 6.11 (06:50) 0 0 0 0 0

Gráficas

Temp. máximas Temp. mínimas Temp. medias Precipitaciones Rachas de viento máximas Velocidades máximas media en intervalos de 10 minutos

Datos horarios

Fecha y hora oficial Temperatura (ºC) Velocidad del viento (km/h) Dirección del viento Racha (km/h) Dirección de racha Precipitación (mm) Presión (hPa) Tendencia (hPa) Humedad (%)
2019-10-14 23:00:00 9.6 24 Nordeste 33 Nordeste 0 -- -- 100
2019-10-14 22:00:00 9.9 22 Nordeste 26 Nordeste 0 -- -- 100
2019-10-14 21:00:00 9.6 23 Norte 27 Norte 0 -- -- 100
2019-10-14 20:00:00 9.6 19 Norte 23 Norte 0 -- -- 100
2019-10-14 19:00:00 10.9 16 Nordeste 24 Nordeste 0 -- -- 100
2019-10-14 18:00:00 11.2 18 Nordeste 23 Nordeste 0 -- -- 100
2019-10-14 17:00:00 11.6 12 Nordeste 24 Nordeste 0 -- -- 100
2019-10-14 16:00:00 11.7 15 Nordeste 27 Nordeste 0 -- -- 100
2019-10-14 15:00:00 11.8 19 Nordeste 28 Nordeste 0 -- -- 100
2019-10-14 14:00:00 11.6 16 Nordeste 23 Nordeste 0 -- -- 100
2019-10-14 13:00:00 12.8 17 Nordeste 31 Nordeste 0 -- -- 100
2019-10-14 12:00:00 12.7 21 Nordeste 31 Nordeste 0 -- -- 100
2019-10-14 11:00:00 12.5 21 Nordeste 34 Este 0 -- -- 100
2019-10-14 10:00:00 11.9 23 Nordeste 32 Nordeste 0.2 -- -- 100
2019-10-14 09:00:00 11.8 26 Nordeste 40 Nordeste 0.4 -- -- 100
2019-10-14 08:00:00 11.5 30 Nordeste 42 Nordeste 0.6 -- -- 100
2019-10-14 07:00:00 11.7 27 Nordeste 42 Nordeste 0.4 -- -- 100
2019-10-14 06:00:00 12 28 Nordeste 40 Nordeste 0.4 -- -- 100
2019-10-14 05:00:00 12.2 25 Nordeste 35 Nordeste 0.6 -- -- 100
2019-10-14 04:00:00 11.9 21 Nordeste 32 Nordeste 0 -- -- 100
2019-10-14 03:00:00 11.6 22 Nordeste 26 Nordeste 0 -- -- 100
2019-10-14 02:00:00 12.1 18 Nordeste 25 Nordeste 0 -- -- 100
2019-10-14 01:00:00 10.8 14 Nordeste 21 Norte 0 -- -- 100
2019-10-14 00:00:00 10.9 14 Nordeste 21 Nordeste 0 -- -- 100
2019-10-13 23:00:00 11.2 15 Nordeste 20 Noroeste 0 -- -- 94
2019-10-13 22:00:00 13.4 20 Noroeste 29 Noroeste 0 -- -- 63
2019-10-13 21:00:00 12.6 21 Norte 33 Noroeste 0 -- -- 66
2019-10-13 20:00:00 12.8 12 Oeste 17 Oeste 0 -- -- 83
2019-10-13 19:00:00 17 9 Oeste 18 Noroeste 0 -- -- 67
2019-10-13 18:00:00 16.9 10 Oeste 24 Noroeste 0 -- -- 67
2019-10-13 17:00:00 18.3 17 Oeste 31 Oeste 0 -- -- 60
2019-10-13 16:00:00 19.4 15 Oeste 27 Oeste 0 -- -- 59
2019-10-13 15:00:00 17.5 15 Oeste 33 Oeste 0 -- -- 62
2019-10-13 14:00:00 16.9 21 Oeste 33 Oeste 0 -- -- 65
2019-10-13 13:00:00 16.9 10 Oeste 20 Oeste 0 -- -- 71
2019-10-13 12:00:00 15.6 9 Oeste 24 Oeste 0 -- -- 59
2019-10-13 11:00:00 15 14 Oeste 21 Oeste 0 -- -- 45
2019-10-13 10:00:00 14.6 11 Oeste 15 Oeste 0 -- -- 35
2019-10-13 09:00:00 12.7 3 Noroeste 18 Oeste 0 -- -- 44
2019-10-13 08:00:00 9.9 14 Oeste 17 Oeste 0 -- -- 100
2019-10-13 07:00:00 11 0 Calma 9 Norte 0 -- -- 60
2019-10-13 06:00:00 12.2 4 Norte 8 Noroeste 0 -- -- 47
2019-10-13 05:00:00 9.3 5 Sudeste 13 Sur 0 -- -- 100
2019-10-13 04:00:00 11 5 Sudoeste 13 Norte 0 -- -- 86
2019-10-13 03:00:00 13.2 11 Norte 14 Noroeste 0 -- -- 35
2019-10-13 02:00:00 14.6 14 Noroeste 18 Noroeste 0 -- -- 29
2019-10-13 01:00:00 14 9 Noroeste 17 Noroeste 0 -- -- 37
2019-10-13 00:00:00 14.6 10 Noroeste 14 Noroeste 0 -- -- 36
2019-10-12 23:00:00 15 10 Noroeste 17 Noroeste 0 -- -- 27
2019-10-12 22:00:00 14.9 12 Noroeste 18 Noroeste 0 -- -- 27
2019-10-12 21:00:00 13.6 13 Noroeste 15 Noroeste 0 -- -- 38
2019-10-12 20:00:00 13.8 15 Noroeste 17 Oeste 0 -- -- 48
2019-10-12 19:00:00 16.7 9 Sudoeste 15 Sudoeste 0 -- -- 76
2019-10-12 18:00:00 17.2 8 Oeste 19 Noroeste 0 -- -- 78
2019-10-12 17:00:00 16.4 7 Norte 17 Oeste 0 -- -- 80
2019-10-12 16:00:00 17.2 8 Oeste 16 Noroeste 0 -- -- 88
2019-10-12 15:00:00 15.9 4 Noroeste 15 Noroeste 0 -- -- 95
2019-10-12 14:00:00 14.9 5 Noroeste 15 Oeste 0 -- -- 100
2019-10-12 13:00:00 14.6 4 Noroeste 23 Noroeste 0 -- -- 100
2019-10-12 12:00:00 13.5 3 Sudoeste 8 Sudeste 0 -- -- 100
2019-10-12 11:00:00 12.4 2 Oeste 18 Nordeste 0 -- -- 100
2019-10-12 10:00:00 10.9 12 Este 27 Nordeste 0 -- -- 100
2019-10-12 09:00:00 10.6 24 Nordeste 32 Nordeste 0 -- -- 100
2019-10-12 08:00:00 10.3 26 Nordeste 35 Nordeste 0 -- -- 100
2019-10-12 07:00:00 10.3 27 Nordeste 33 Nordeste 0.2 -- -- 100
2019-10-12 06:00:00 10 23 Nordeste 33 Nordeste 0 -- -- 100
2019-10-12 05:00:00 9.7 22 Nordeste 34 Nordeste 0 -- -- 100
2019-10-12 04:00:00 9.6 24 Nordeste 30 Nordeste 0 -- -- 100
2019-10-12 03:00:00 10 25 Nordeste 34 Nordeste 0 -- -- 100
2019-10-12 02:00:00 11 28 Nordeste 39 Nordeste 0 -- -- 100
2019-10-12 01:00:00 11.3 26 Nordeste 36 Nordeste 0 -- -- 100
2019-10-12 00:00:00 10.9 31 Nordeste 40 Nordeste 0 -- -- 100
2019-10-11 23:00:00 10.3 28 Nordeste 32 Nordeste 0 -- -- 100
2019-10-11 22:00:00 10.8 23 Nordeste 32 Norte 0 -- -- 100
2019-10-11 21:00:00 10.8 21 Norte 30 Nordeste 0 -- -- 100
2019-10-11 20:00:00 11.1 23 Nordeste 33 Nordeste 0 -- -- 100
2019-10-11 19:00:00 12 23 Nordeste 29 Nordeste 0 -- -- 100
2019-10-11 18:00:00 13.1 7 Nordeste 20 Nordeste 0 -- -- 89
2019-10-11 17:00:00 14.4 11 Este 18 Este 0 -- -- 85
2019-10-11 16:00:00 15.9 6 Este 13 Este 0 -- -- 82
2019-10-11 15:00:00 17.7 4 Noroeste 13 Noroeste 0 -- -- 76
2019-10-11 14:00:00 16.6 5 Oeste 26 Sur 0 -- -- 83
2019-10-11 13:00:00 12.1 16 Este 34 Nordeste 0 -- -- 100
2019-10-11 12:00:00 11.4 18 Nordeste 31 Nordeste 0 -- -- 100
2019-10-11 11:00:00 10.9 23 Nordeste 37 Nordeste 0 -- -- 100
2019-10-11 10:00:00 10.7 33 Nordeste 43 Nordeste 0.2 -- -- 100
2019-10-11 09:00:00 10.2 31 Nordeste 39 Nordeste 0 -- -- 100
2019-10-11 08:00:00 10.2 32 Nordeste 42 Nordeste 0 -- -- 100
2019-10-11 07:00:00 9.8 32 Nordeste 43 Norte 0 -- -- 100
2019-10-11 06:00:00 9.9 30 Nordeste 40 Nordeste 0 -- -- 100
2019-10-11 05:00:00 -- 27 Nordeste 36 Nordeste 0 -- -- --
2019-10-11 04:00:00 10.5 23 Nordeste 33 Nordeste 0 -- -- 100
2019-10-11 03:00:00 9.8 26 Norte 31 Norte 0.2 -- -- 100
2019-10-11 02:00:00 10.2 16 Norte 26 Norte 0 -- -- 100
2019-10-11 01:00:00 10.1 18 Norte 23 Norte 0 -- -- 100
2019-10-11 00:00:00 10.1 16 Norte 23 Norte 0 -- -- 100
2019-10-10 23:00:00 10.6 18 Nordeste 28 Nordeste 0 -- -- 100
2019-10-10 22:00:00 10.8 21 Nordeste 29 Nordeste 0 -- -- 100
2019-10-10 21:00:00 10.5 17 Nordeste 25 Nordeste 0 -- -- 100
2019-10-10 20:00:00 10.9 15 Nordeste 23 Nordeste 0 -- -- 100
2019-10-10 19:00:00 13.1 10 Norte 19 Norte 0 -- -- 88
2019-10-10 18:00:00 15.5 5 Nordeste 15 Noroeste 0 -- -- 80
2019-10-10 17:00:00 16.4 6 Norte 17 Este 0 -- -- 79
2019-10-10 16:00:00 16.8 10 Nordeste 18 Este 0 -- -- 74
2019-10-10 15:00:00 16.1 12 Este 24 Este 0 -- -- 75
2019-10-10 14:00:00 14.5 17 Este 29 Este 0 -- -- 85
2019-10-10 13:00:00 14.3 20 Nordeste 31 Nordeste 0 -- -- 87
2019-10-10 12:00:00 13.3 22 Nordeste 31 Nordeste 0 -- -- 95
2019-10-10 11:00:00 11.7 23 Nordeste 30 Nordeste 0 -- -- 100
2019-10-10 10:00:00 10.7 24 Nordeste 32 Nordeste 0 -- -- 100
2019-10-10 09:00:00 10.2 24 Nordeste 36 Nordeste 0 -- -- 100
2019-10-10 08:00:00 10.5 28 Nordeste 37 Nordeste 0 -- -- 100
2019-10-10 07:00:00 10.3 24 Nordeste 33 Nordeste 0 -- -- 100
2019-10-10 06:00:00 10.3 22 Nordeste 31 Nordeste 0 -- -- 100
2019-10-10 05:00:00 10.3 14 Nordeste 23 Nordeste 0 -- -- 97
2019-10-10 04:00:00 15 5 Oeste 8 Este 0 -- -- 31
2019-10-10 03:00:00 14.8 6 Sudoeste 12 Sur 0 -- -- 33
2019-10-10 02:00:00 15.6 4 Sur 11 Sudeste 0 -- -- 32
2019-10-10 01:00:00 15.7 8 Sudeste 18 Este 0 -- -- 32
2019-10-10 00:00:00 15.8 17 Nordeste 20 Nordeste 0 -- -- 21
2019-10-09 23:00:00 15.8 13 Nordeste 14 Nordeste 0 -- -- 30
2019-10-09 22:00:00 16.2 4 Este 9 Este 0 -- -- 31
2019-10-09 21:00:00 16.7 0 Calma 8 Noroeste 0 -- -- 31
2019-10-09 20:00:00 17 6 Norte 14 Noroeste 0 -- -- 29
2019-10-09 19:00:00 19.9 5 Noroeste 18 Noroeste 0 -- -- 34
2019-10-09 18:00:00 22 9 Oeste 17 Noroeste 0 -- -- 61
2019-10-09 17:00:00 23.3 10 Oeste 19 Oeste 0 -- -- 61
2019-10-09 16:00:00 23.4 8 Oeste 19 Sur 0 -- -- 53
2019-10-09 15:00:00 23.5 5 Sur 15 Oeste 0 -- -- 39
2019-10-09 14:00:00 22.3 8 Noroeste 15 Oeste 0 -- -- 60
2019-10-09 13:00:00 22.4 6 Oeste 18 Noroeste 0 -- -- 45
2019-10-09 12:00:00 22.3 4 Noroeste 16 Sudeste 0 -- -- 34
2019-10-09 11:00:00 22.2 8 Este 17 Este 0 -- -- 29
2019-10-09 10:00:00 21.2 10 Este 21 Nordeste 0 -- -- 24
2019-10-09 09:00:00 18.8 17 Nordeste 21 Nordeste 0 -- -- 26
2019-10-09 08:00:00 16.4 19 Nordeste 27 Nordeste 0 -- -- 31
2019-10-09 07:00:00 17 14 Nordeste 25 Nordeste 0 -- -- 29
2019-10-09 06:00:00 16.5 17 Nordeste 21 Nordeste 0 -- -- 32
2019-10-09 05:00:00 16.8 7 Norte 21 Norte 0 -- -- 27
2019-10-09 04:00:00 18.6 5 Noroeste 11 Norte 0 -- -- 22
2019-10-09 03:00:00 18.9 2 Sudoeste 8 Sudoeste 0 -- -- 25
2019-10-09 02:00:00 19.9 4 Oeste 6 Sudoeste 0 -- -- 16
2019-10-09 01:00:00 20.1 5 Sudoeste 10 Sur 0 -- -- 16
2019-10-09 00:00:00 19.6 9 Sudeste 13 Este 0 -- -- 17
2019-10-08 23:00:00 19.6 14 Este 17 Nordeste 0 -- -- 18
2019-10-08 22:00:00 20.9 16 Nordeste 23 Nordeste 0 -- -- 14
2019-10-08 21:00:00 20.7 19 Nordeste 22 Norte 0 -- -- 15
2019-10-08 20:00:00 20.8 19 Norte 22 Norte 0 -- -- 16
2019-10-08 19:00:00 22.6 13 Norte 24 Noroeste 0 -- -- 18
2019-10-08 18:00:00 24.6 16 Noroeste 30 Noroeste 0 -- -- 30
2019-10-08 17:00:00 25.9 15 Noroeste 27 Oeste 0 -- -- 41
2019-10-08 16:00:00 26.3 17 Oeste 32 Noroeste 0 -- -- 32
2019-10-08 15:00:00 26.2 23 Oeste 43 Oeste 0 -- -- 20
2019-10-08 14:00:00 26 21 Oeste 39 Oeste 0 -- -- 22
2019-10-08 13:00:00 25.8 24 Oeste 45 Oeste 0 -- -- 22
2019-10-08 12:00:00 24.6 22 Oeste 40 Oeste 0 -- -- 21
2019-10-08 11:00:00 23 28 Oeste 39 Noroeste 0 -- -- 18
2019-10-08 10:00:00 22.2 26 Oeste 36 Oeste 0 -- -- 18
2019-10-08 09:00:00 21 26 Oeste 37 Oeste 0 -- -- 18
2019-10-08 08:00:00 20.1 25 Oeste 33 Oeste 0 -- -- 18
2019-10-08 07:00:00 20.4 28 Oeste 41 Oeste 0 -- -- 17
2019-10-08 06:00:00 20.2 25 Oeste 31 Oeste 0 -- -- 18
2019-10-08 05:00:00 20.2 23 Oeste 37 Oeste 0 -- -- 19
2019-10-08 04:00:00 20.8 26 Oeste 37 Sudoeste 0 -- -- 17
2019-10-08 03:00:00 20.2 23 Sudoeste 28 Sudoeste 0 -- -- 18
2019-10-08 02:00:00 20 22 Sudoeste 27 Sudoeste 0 -- -- 18
2019-10-08 01:00:00 20.3 23 Sudoeste 25 Sudoeste 0 -- -- 18
2019-10-08 00:00:00 19.9 16 Sudoeste 20 Sudoeste 0 -- -- 19
2019-10-07 23:00:00 19.9 15 Sudoeste 18 Sudoeste 0 -- -- 19
2019-10-07 22:00:00 20.1 16 Sudoeste 21 Sudoeste 0 -- -- 19
2019-10-07 21:00:00 20.1 19 Sudoeste 21 Sudoeste 0 -- -- 19
2019-10-07 20:00:00 19.9 16 Sur 19 Sur 0 -- -- 21
2019-10-07 19:00:00 23.9 10 Sur 21 Sur 0 -- -- 21
2019-10-07 18:00:00 25.5 14 Sur 23 Sur 0 -- -- 18
2019-10-07 17:00:00 26.9 12 Sur 22 Sur 0 -- -- 20
2019-10-07 16:00:00 27.5 11 Sur 21 Sudeste 0 -- -- 16
2019-10-07 15:00:00 27.9 12 Sur 22 Sur 0 -- -- 19
2019-10-07 14:00:00 25.5 16 Sudeste 33 Sudeste 0 -- -- 21
2019-10-07 13:00:00 23.4 23 Sudeste 36 Sudeste 0 -- -- 26
2019-10-07 12:00:00 22.8 27 Sudeste 37 Sudeste 0 -- -- 29
2019-10-07 11:00:00 21.8 26 Sudeste 33 Este 0 -- -- 27
2019-10-07 10:00:00 21.9 19 Sudeste 26 Sudeste 0 -- -- 25
2019-10-07 09:00:00 21.7 10 Sudeste 12 Sudeste 0 -- -- 17
2019-10-07 08:00:00 19.9 9 Sur 12 Sur 0 -- -- 18
2019-10-07 07:00:00 20.1 6 Sudeste 10 Sur 0 -- -- 17
2019-10-07 06:00:00 20.1 7 Sudeste 10 Sur 0 -- -- 18
2019-10-07 05:00:00 20.2 5 Sudoeste 8 Sudoeste 0 -- -- 18
2019-10-07 04:00:00 20.1 7 Sudoeste 8 Sudoeste 0 -- -- 19
2019-10-07 03:00:00 20.4 3 Sudoeste 8 Sudeste 0 -- -- 19
2019-10-07 02:00:00 20.6 6 Sur 10 Sur 0 -- -- 19
2019-10-07 01:00:00 20.2 9 Sur 15 Sudeste 0 -- -- 19
2019-10-07 00:00:00 19.9 16 Sudeste 22 Este 0 -- -- 24
2019-10-06 23:00:00 19.5 20 Nordeste 24 Nordeste 0 -- -- 26
2019-10-06 22:00:00 18.3 22 Nordeste 27 Nordeste 0 -- -- 30
2019-10-06 21:00:00 18.4 22 Nordeste 27 Nordeste 0 -- -- 30
2019-10-06 20:00:00 18.5 22 Nordeste 28 Nordeste 0 -- -- 31
2019-10-06 19:00:00 18.6 23 Nordeste 27 Nordeste 0 -- -- 33
2019-10-06 18:00:00 19 21 Nordeste 26 Nordeste 0 -- -- 33
2019-10-06 17:00:00 22.7 9 Nordeste 15 Norte 0 -- -- 32
2019-10-06 16:00:00 23.2 10 Nordeste 19 Nordeste 0 -- -- 29
2019-10-06 15:00:00 22.9 12 Nordeste 22 Nordeste 0 -- -- 40
2019-10-06 14:00:00 23.3 9 Nordeste 18 Nordeste 0 -- -- 26
2019-10-06 13:00:00 23.3 9 Este 27 Sudeste 0 -- -- 25
2019-10-06 12:00:00 23.3 16 Este 26 Este 0 -- -- 24
2019-10-06 11:00:00 20.1 21 Este 33 Este 0 -- -- 39
2019-10-06 10:00:00 15.1 29 Este 41 Nordeste 0 -- -- 63
2019-10-06 09:00:00 11.2 36 Nordeste 54 Nordeste 0 -- -- 100
2019-10-06 08:00:00 11.8 42 Nordeste 57 Nordeste 0 -- -- 97
2019-10-06 07:00:00 14.4 47 Nordeste 56 Nordeste 0 -- -- 59
2019-10-06 06:00:00 12.7 46 Nordeste 58 Nordeste 0 -- -- 84
2019-10-06 05:00:00 12.2 42 Nordeste 57 Nordeste 0 -- -- 98
2019-10-06 04:00:00 11.1 44 Nordeste 59 Nordeste 0 -- -- 100
2019-10-06 03:00:00 11.8 44 Nordeste 58 Nordeste 0 -- -- 100
2019-10-06 02:00:00 12 48 Nordeste 64 Nordeste 0 -- -- 98
2019-10-06 01:00:00 13.6 53 Nordeste 66 Este 0 -- -- 81
2019-10-06 00:00:00 12.1 47 Nordeste 64 Nordeste 0 -- -- 95
2019-10-05 23:00:00 14.1 51 Nordeste 63 Nordeste 0 -- -- 77
2019-10-05 22:00:00 12.3 46 Nordeste 63 Nordeste 0 -- -- 100
2019-10-05 21:00:00 12.5 41 Nordeste 62 Este 0 -- -- 100
2019-10-05 20:00:00 12.7 46 Nordeste 59 Nordeste 0 -- -- 100
2019-10-05 19:00:00 13.1 44 Nordeste 67 Este 0 -- -- 100
2019-10-05 18:00:00 14 40 Nordeste 58 Nordeste 0 -- -- 96
2019-10-05 17:00:00 13.6 41 Nordeste 59 Nordeste 0 -- -- 100
2019-10-05 16:00:00 14 39 Nordeste 60 Nordeste 0 -- -- 100
2019-10-05 15:00:00 14 40 Nordeste 59 Nordeste 0 -- -- 100
2019-10-05 14:00:00 14.3 40 Nordeste 62 Nordeste 0 -- -- 100
2019-10-05 13:00:00 13.7 42 Nordeste 55 Nordeste 0 -- -- 100
2019-10-05 12:00:00 13.9 40 Nordeste 53 Nordeste 0 -- -- 100
2019-10-05 11:00:00 13.4 40 Nordeste 52 Nordeste 0 -- -- 100
2019-10-05 10:00:00 14.4 44 Nordeste 59 Nordeste 0 -- -- 80
2019-10-05 09:00:00 15.2 51 Nordeste 59 Nordeste 0 -- -- 69
2019-10-05 08:00:00 12.4 46 Nordeste 57 Nordeste 0 -- -- 99
2019-10-05 07:00:00 12.3 43 Nordeste 58 Nordeste 0 -- -- 93
2019-10-05 06:00:00 14.9 49 Nordeste 62 Este 0 -- -- 59
2019-10-05 05:00:00 17.4 43 Nordeste 55 Nordeste 0 -- -- 38
2019-10-05 04:00:00 17.7 37 Nordeste 48 Nordeste 0 -- -- 36
2019-10-05 03:00:00 18.1 36 Nordeste 46 Nordeste 0 -- -- 36
2019-10-05 02:00:00 18.6 34 Nordeste 45 Nordeste 0 -- -- 34
2019-10-05 01:00:00 19.3 35 Nordeste 49 Nordeste 0 -- -- 27
2019-10-05 00:00:00 19.4 36 Nordeste 49 Este 0 -- -- 29
2019-10-04 23:00:00 19.3 37 Nordeste 47 Nordeste 0 -- -- 30
2019-10-04 22:00:00 19.6 36 Nordeste 49 Nordeste 0 -- -- 28
2019-10-04 21:00:00 19.7 36 Nordeste 46 Nordeste 0 -- -- 28
2019-10-04 20:00:00 19.6 35 Nordeste 49 Nordeste 0 -- -- 28
2019-10-04 19:00:00 20.2 34 Nordeste 47 Nordeste 0 -- -- 28
2019-10-04 18:00:00 21.1 30 Nordeste 47 Nordeste 0 -- -- 26
2019-10-04 17:00:00 21.8 31 Nordeste 44 Nordeste 0 -- -- 26
2019-10-04 16:00:00 21.8 30 Nordeste 52 Nordeste 0 -- -- 28
2019-10-04 15:00:00 21.6 36 Nordeste 55 Nordeste 0 -- -- 30
2019-10-04 14:00:00 21.9 37 Nordeste 53 Nordeste 0 -- -- 32
2019-10-04 13:00:00 21.7 35 Nordeste 54 Nordeste 0 -- -- 33
2019-10-04 12:00:00 21.2 39 Nordeste 58 Nordeste 0 -- -- 34
2019-10-04 11:00:00 20.6 41 Nordeste 60 Nordeste 0 -- -- 34
2019-10-04 10:00:00 20.4 44 Nordeste 60 Nordeste 0 -- -- 28
2019-10-04 09:00:00 19.9 46 Nordeste 62 Nordeste 0 -- -- 28
2019-10-04 08:00:00 19.3 47 Nordeste 62 Nordeste 0 -- -- 29
2019-10-04 07:00:00 19 45 Nordeste 60 Nordeste 0 -- -- 29
2019-10-04 06:00:00 19.4 45 Nordeste 60 Nordeste 0 -- -- 28
2019-10-04 05:00:00 19.3 45 Nordeste 60 Nordeste 0 -- -- 28
2019-10-04 04:00:00 19.8 44 Nordeste 57 Nordeste 0 -- -- 28
2019-10-04 03:00:00 20.6 41 Nordeste 53 Nordeste 0 -- -- 25
2019-10-04 02:00:00 20.9 40 Nordeste 55 Nordeste 0 -- -- 25
2019-10-04 01:00:00 20.9 45 Nordeste 58 Nordeste 0 -- -- 24
2019-10-04 00:00:00 19.9 45 Nordeste 59 Nordeste 0 -- -- 29
2019-10-03 23:00:00 19.9 48 Nordeste 65 Nordeste 0 -- -- 31
2019-10-03 22:00:00 20.5 49 Nordeste 62 Este 0 -- -- 26
2019-10-03 21:00:00 20.7 46 Nordeste 57 Nordeste 0 -- -- 24
2019-10-03 20:00:00 20.9 45 Nordeste 58 Nordeste 0 -- -- 22
2019-10-03 19:00:00 21.1 43 Nordeste 66 Nordeste 0 -- -- 17
2019-10-03 18:00:00 21.5 37 Nordeste 52 Nordeste 0 -- -- 19
2019-10-03 17:00:00 23.4 33 Nordeste 50 Nordeste 0 -- -- 16
2019-10-03 16:00:00 24.6 30 Nordeste 49 Este 0 -- -- 20
2019-10-03 15:00:00 25 28 Nordeste 45 Nordeste 0 -- -- 18
2019-10-03 14:00:00 25 26 Nordeste 44 Este 0 -- -- 19
2019-10-03 13:00:00 25.5 26 Nordeste 42 Nordeste 0 -- -- 20
2019-10-03 12:00:00 25.2 28 Nordeste 48 Nordeste 0 -- -- 20
2019-10-03 11:00:00 24.8 28 Nordeste 41 Nordeste 0 -- -- 20
2019-10-03 10:00:00 24 33 Nordeste 45 Nordeste 0 -- -- 19
2019-10-03 09:00:00 23.2 34 Nordeste 46 Nordeste 0 -- -- 20
2019-10-03 08:00:00 22.6 36 Nordeste 46 Nordeste 0 -- -- 21
2019-10-03 07:00:00 22.7 35 Nordeste 43 Nordeste 0 -- -- 21
2019-10-03 06:00:00 22.7 34 Nordeste 43 Nordeste 0 -- -- 20
2019-10-03 05:00:00 23.2 27 Nordeste 35 Nordeste 0 -- -- 20
2019-10-03 04:00:00 23.8 24 Nordeste 32 Nordeste 0 -- -- 20
2019-10-03 03:00:00 23.9 28 Nordeste 34 Este 0 -- -- 20
2019-10-03 02:00:00 23.9 31 Nordeste 38 Nordeste 0 -- -- 20
2019-10-03 01:00:00 23.9 32 Nordeste 37 Nordeste 0 -- -- 20
2019-10-03 00:00:00 23.9 31 Nordeste 38 Nordeste 0 -- -- 20
2019-10-02 23:00:00 23.8 30 Nordeste 36 Nordeste 0 -- -- 20
2019-10-02 22:00:00 24.6 13 Norte 16 Norte 0 -- -- 20
2019-10-02 21:00:00 25.5 10 Norte 14 Norte 0 -- -- 17
2019-10-02 20:00:00 25.3 10 Oeste 16 Oeste 0 -- -- 18
2019-10-02 19:00:00 28.9 13 Oeste 19 Oeste 0 -- -- 21
2019-10-02 18:00:00 31.2 12 Oeste 21 Oeste 0 -- -- 20
2019-10-02 17:00:00 32.1 5 Oeste 18 Oeste 0 -- -- 21
2019-10-02 16:00:00 32.4 9 Sudoeste 19 Sudoeste 0 -- -- 20
2019-10-02 15:00:00 33.5 10 Oeste 20 Oeste 0 -- -- 21
2019-10-02 14:00:00 32.8 6 Sudoeste 17 Sudoeste 0 -- -- 18
2019-10-02 13:00:00 31.9 5 Oeste 13 Sudeste 0 -- -- 18
2019-10-02 12:00:00 31.3 3 Nordeste 17 Nordeste 0 -- -- 16
2019-10-02 11:00:00 29.9 11 Este 21 Este 0 -- -- 17
2019-10-02 10:00:00 28.1 13 Este 21 Este 0 -- -- 18
2019-10-02 09:00:00 26.6 15 Nordeste 17 Nordeste 0 -- -- 18
2019-10-02 08:00:00 25.9 13 Nordeste 16 Nordeste 0 -- -- 18
2019-10-02 07:00:00 26 13 Nordeste 14 Nordeste 0 -- -- 17
2019-10-02 06:00:00 25.7 12 Nordeste 13 Norte 0 -- -- 18
2019-10-02 05:00:00 25.4 10 Norte 12 Norte 0 -- -- 19
2019-10-02 04:00:00 26.2 5 Nordeste 8 Norte 0 -- -- 17
2019-10-02 03:00:00 26.3 7 Este 15 Sudeste 0 -- -- 17
2019-10-02 02:00:00 26.3 15 Este 21 Sudeste 0 -- -- 16
2019-10-02 01:00:00 26 17 Sudeste 26 Sudeste 0 -- -- 16
2019-10-02 00:00:00 25.7 23 Sudeste 26 Sudeste 0 -- -- 17
2019-10-01 23:00:00 25.4 19 Este 25 Sudeste 0 -- -- 17
2019-10-01 22:00:00 25.6 13 Este 18 Este 0 -- -- 18
2019-10-01 21:00:00 25.9 18 Este 20 Este 0 -- -- 17
2019-10-01 20:00:00 26.1 16 Este 17 Este 0 -- -- 17
2019-10-01 19:00:00 27.9 9 Sudeste 15 Sudeste 0 -- -- 17
2019-10-01 18:00:00 30.9 4 Sudeste 15 Oeste 0 -- -- 20
2019-10-01 17:00:00 31 5 Nordeste 26 Sudoeste 0 -- -- 22
2019-10-01 16:00:00 32.6 5 Norte 15 Nordeste 0 -- -- 21
2019-10-01 15:00:00 33.1 7 Oeste 21 Sudoeste 0 -- -- 22
2019-10-01 14:00:00 32.6 6 Sudoeste 15 Oeste 0 -- -- 20
2019-10-01 13:00:00 30.9 6 Este 16 Este 0 -- -- 18
2019-10-01 12:00:00 31 9 Este 22 Este 0 -- -- 16
2019-10-01 11:00:00 30.2 10 Este 16 Este 0 -- -- 15
2019-10-01 10:00:00 28.4 12 Este 19 Este 0 -- -- 17
2019-10-01 09:00:00 26 14 Este 19 Este 0 -- -- 18
2019-10-01 08:00:00 25.4 7 Este 8 Este 0 -- -- 17
2019-10-01 07:00:00 24.8 8 Este 14 Este 0 -- -- 18
2019-10-01 06:00:00 25.1 15 Este 23 Este 0 -- -- 19
2019-10-01 05:00:00 24.8 20 Este 24 Este 0 -- -- 20
2019-10-01 04:00:00 24.8 23 Este 27 Este 0 -- -- 21
2019-10-01 03:00:00 24.7 23 Este 28 Este 0 -- -- 21
2019-10-01 02:00:00 25 21 Este 27 Este 0 -- -- 21
2019-10-01 01:00:00 23 25 Nordeste 37 Nordeste 0 -- -- 21
2019-10-01 00:00:00 23.2 32 Nordeste 38 Nordeste 0 -- -- 21
2019-09-30 23:00:00 23.3 34 Nordeste 39 Nordeste 0 -- -- 21
2019-09-30 22:00:00 23.3 30 Nordeste 33 Nordeste 0 -- -- 21
2019-09-30 21:00:00 23.1 27 Nordeste 32 Nordeste 0 -- -- 21
2019-09-30 20:00:00 23.8 18 Nordeste 24 Nordeste 0 -- -- 20
2019-09-30 19:00:00 25 9 Nordeste 14 Norte 0 -- -- 21
2019-09-30 18:00:00 30.2 5 Sudoeste 16 Sur 0 -- -- 23
2019-09-30 17:00:00 31.4 5 Oeste 22 Nordeste 0 -- -- 25
2019-09-30 16:00:00 33.4 8 Oeste 15 Sudoeste 0 -- -- 21
2019-09-30 15:00:00 31.7 6 Oeste 15 Oeste 0 -- -- 22
2019-09-30 14:00:00 31.5 6 Sur 21 Este 0 -- -- 20
2019-09-30 13:00:00 29.8 9 Sudeste 26 Este 0 -- -- 17
2019-09-30 12:00:00 29.3 11 Este 24 Este 0 -- -- 17
2019-09-30 11:00:00 28.2 14 Este 21 Este 0 -- -- 17
2019-09-30 10:00:00 27.1 5 Este 9 Este 0 -- -- 20
2019-09-30 09:00:00 25.2 0 Calma 8 Oeste 0 -- -- 19
2019-09-30 08:00:00 24 5 Oeste 7 Oeste 0 -- -- 20
2019-09-30 07:00:00 24 3 Oeste 5 Sudoeste 0 -- -- 20
2019-09-30 06:00:00 -- 4 Sudoeste 6 Sur 0 -- -- --
2019-09-30 05:00:00 24.2 5 Sudoeste 9 Oeste 0 -- -- 20
2019-09-30 04:00:00 23.9 7 Oeste 9 Sudoeste 0 -- -- 21
2019-09-30 03:00:00 23.8 6 Sudoeste 11 Sur 0 -- -- 21
2019-09-30 02:00:00 23.6 9 Sudoeste 13 Sudoeste 0 -- -- 23
2019-09-30 01:00:00 23.7 12 Sudoeste 14 Sudoeste 0 -- -- 23
2019-09-30 00:00:00 23.8 14 Sudoeste 17 Sudoeste 0 -- -- 23
2019-09-29 23:00:00 23.4 16 Sudoeste 17 Sudoeste 0 -- -- 22
2019-09-29 22:00:00 23 16 Sudoeste 19 Sudoeste 0 -- -- 23
2019-09-29 21:00:00 22.9 15 Sudoeste 21 Sudoeste 0 -- -- 23
2019-09-29 20:00:00 23.3 17 Sur 23 Sur 0 -- -- 22
2019-09-29 19:00:00 25 14 Sur 26 Sur 0 -- -- 23
2019-09-29 18:00:00 27.3 15 Sur 31 Sur 0 -- -- 21
2019-09-29 17:00:00 28.8 14 Sur 33 Sur 0 -- -- 21
2019-09-29 16:00:00 28.4 17 Sur 34 Sur 0 -- -- 23
2019-09-29 15:00:00 28.4 19 Sur 33 Sur 0 -- -- 24
2019-09-29 14:00:00 28.5 17 Sur 37 Sur 0 -- -- 22
2019-09-29 13:00:00 27.3 21 Sur 32 Sur 0 -- -- 23
2019-09-29 12:00:00 26.7 20 Sur 31 Sur 0 -- -- 24
2019-09-29 11:00:00 25.8 15 Sur 28 Sudoeste 0 -- -- 24
2019-09-29 10:00:00 23.4 18 Sudoeste 28 Sudoeste 0 -- -- 26
2019-09-29 09:00:00 21.9 24 Sudoeste 30 Sudoeste 0 -- -- 24
2019-09-29 08:00:00 21.3 26 Sudoeste 31 Sudoeste 0 -- -- 25
2019-09-29 07:00:00 21.5 26 Sudoeste 32 Sudoeste 0 -- -- 24
2019-09-29 06:00:00 21.5 24 Sudoeste 33 Sudoeste 0 -- -- 23
2019-09-29 05:00:00 21.6 27 Sudoeste 32 Sudoeste 0 -- -- 22
2019-09-29 04:00:00 21.4 27 Sudoeste 36 Sudoeste 0 -- -- 24
2019-09-29 03:00:00 21.1 27 Sudoeste 34 Sudoeste 0 -- -- 25
2019-09-29 02:00:00 21.2 29 Sudoeste 39 Sudoeste 0 -- -- 24
2019-09-29 01:00:00 21.2 28 Sudoeste 38 Sudoeste 0 -- -- 26
2019-09-29 00:00:00 21 26 Sudoeste 38 Sudoeste 0 -- -- 26
2019-09-28 23:00:00 21 26 Sudoeste 39 Sudoeste 0 -- -- 25
2019-09-28 22:00:00 21.5 32 Sudoeste 44 Sudoeste 0 -- -- 25
2019-09-28 21:00:00 21.6 33 Sudoeste 43 Sudoeste 0 -- -- 24
2019-09-28 20:00:00 21.9 31 Sudoeste 39 Sudoeste 0 -- -- 23
2019-09-28 19:00:00 25.3 26 Sudoeste 36 Sudoeste 0 -- -- 20
2019-09-28 18:00:00 26.2 26 Sudoeste 36 Sudoeste 0 -- -- 22
2019-09-28 17:00:00 26.3 23 Sudoeste 39 Sudoeste 0 -- -- 27
2019-09-28 16:00:00 28.2 18 Sudoeste 35 Sudoeste 0 -- -- 25
2019-09-28 15:00:00 27 16 Sudoeste 33 Sudoeste 0 -- -- 33
2019-09-28 14:00:00 25.9 14 Sudoeste 29 Sudoeste 0 -- -- 36
2019-09-28 13:00:00 26.4 18 Sudoeste 36 Sudoeste 0 -- -- 23
2019-09-28 12:00:00 24.3 24 Sudoeste 32 Sudoeste 0 -- -- 23
2019-09-28 11:00:00 22.8 25 Sudoeste 35 Sudoeste 0 -- -- 25
2019-09-28 10:00:00 21.9 27 Sudoeste 42 Sudoeste 0 -- -- 24
2019-09-28 09:00:00 21.5 27 Sudoeste 39 Sudoeste 0 -- -- 24
2019-09-28 08:00:00 21.1 28 Sudoeste 43 Sudoeste 0 -- -- 25
2019-09-28 07:00:00 20.7 30 Sudoeste 40 Sudoeste 0 -- -- 24
2019-09-28 06:00:00 21 32 Sudoeste 40 Sudoeste 0 -- -- 24
2019-09-28 05:00:00 20.9 32 Sudoeste 41 Sudoeste 0 -- -- 22
2019-09-28 04:00:00 20.9 30 Sudoeste 37 Sudoeste 0 -- -- 22
2019-09-28 03:00:00 20.9 28 Sudoeste 35 Sudoeste 0 -- -- 21
2019-09-28 02:00:00 20.1 25 Sudoeste 33 Sudoeste 0 -- -- 23
2019-09-28 01:00:00 19.9 28 Sudoeste 33 Sudoeste 0 -- -- 24
2019-09-28 00:00:00 19.9 23 Sudoeste 33 Sudoeste 0 -- -- 23
2019-09-27 23:00:00 20.2 25 Sudoeste 33 Sudoeste 0 -- -- 22
2019-09-27 22:00:00 20.4 24 Sudoeste 34 Sudoeste 0 -- -- 22
2019-09-27 21:00:00 20.3 28 Sudoeste 34 Sudoeste 0 -- -- 22
2019-09-27 20:00:00 21.5 21 Sudoeste 27 Oeste 0 -- -- 21
2019-09-27 19:00:00 25 21 Sudoeste 29 Sudoeste 0 -- -- 19
2019-09-27 18:00:00 27.1 15 Sudoeste 23 Sudoeste 0 -- -- 25
2019-09-27 17:00:00 27.2 15 Oeste 26 Sudoeste 0 -- -- 19
2019-09-27 16:00:00 26.2 15 Oeste 23 Oeste 0 -- -- 16
2019-09-27 15:00:00 25.5 12 Sudoeste 22 Oeste 0 -- -- 32
2019-09-27 14:00:00 24.9 13 Oeste 28 Oeste 0 -- -- 29
2019-09-27 13:00:00 23.5 22 Oeste 36 Oeste 0 -- -- 28
2019-09-27 12:00:00 22.8 24 Oeste 37 Oeste 0 -- -- 24
2019-09-27 11:00:00 21.8 25 Oeste 33 Oeste 0 -- -- 20
2019-09-27 10:00:00 20.3 22 Oeste 26 Oeste 0 -- -- 19
2019-09-27 09:00:00 19.5 22 Oeste 27 Oeste 0 -- -- 23
2019-09-27 08:00:00 18.8 20 Oeste 31 Sudoeste 0 -- -- 21
2019-09-27 07:00:00 19.5 25 Sudoeste 32 Sudoeste 0 -- -- 18
2019-09-27 06:00:00 18.9 20 Sudoeste 29 Sudoeste 0 -- -- 23
2019-09-27 05:00:00 19.5 22 Sudoeste 28 Sudoeste 0 -- -- 15
2019-09-27 04:00:00 19.4 20 Sudoeste 24 Sudoeste 0 -- -- 15
2019-09-27 03:00:00 19.9 21 Oeste 25 Oeste 0 -- -- 14
2019-09-27 02:00:00 19.4 18 Sudoeste 19 Sudoeste 0 -- -- 13
2019-09-27 01:00:00 18.8 14 Oeste 21 Sudoeste 0 -- -- 33
2019-09-27 00:00:00 18.8 14 Sudoeste 20 Sudoeste 0 -- -- 18
2019-09-26 23:00:00 18.8 12 Sudoeste 14 Sudoeste 0 -- -- 35
2019-09-26 22:00:00 18.7 13 Sudoeste 14 Sudoeste 0 -- -- 35
2019-09-26 21:00:00 19.1 10 Sur 12 Sur 0 -- -- 35
2019-09-26 20:00:00 21 6 Sur 11 Oeste 0 -- -- 34
2019-09-26 19:00:00 24.6 8 Sudoeste 20 Oeste 0 -- -- 43
2019-09-26 18:00:00 25.2 12 Oeste 21 Oeste 0 -- -- 30
2019-09-26 17:00:00 25.8 11 Sudoeste 22 Sudoeste 0 -- -- 21
2019-09-26 16:00:00 25.9 10 Oeste 23 Sudoeste 0 -- -- 44
2019-09-26 15:00:00 25.8 10 Oeste 17 Noroeste 0 -- -- 48
2019-09-26 14:00:00 24.4 10 Oeste 18 Oeste 0 -- -- 55
2019-09-26 13:00:00 23.7 10 Sudoeste 16 Oeste 0 -- -- 46
2019-09-26 12:00:00 21.8 9 Oeste 18 Oeste 0 -- -- 38
2019-09-26 11:00:00 19.8 9 Oeste 16 Oeste 0 -- -- 40
2019-09-26 10:00:00 15.8 11 Sudoeste 15 Sudoeste 0 -- -- 54
2019-09-26 09:00:00 13.2 12 Nordeste 29 Nordeste 0 -- -- 100
2019-09-26 08:00:00 13.4 20 Nordeste 27 Nordeste 0 -- -- 100
2019-09-26 07:00:00 13.3 17 Nordeste 33 Nordeste 0 -- -- 100
2019-09-26 06:00:00 12.3 19 Nordeste 37 Nordeste 0 -- -- 100
2019-09-26 05:00:00 12.6 19 Nordeste 26 Nordeste 0 -- -- 90
2019-09-26 04:00:00 18.1 11 Este 15 Este 0 -- -- 43
2019-09-26 03:00:00 18.4 15 Este 18 Sudeste 0 -- -- 38
2019-09-26 02:00:00 18.2 15 Este 21 Nordeste 0 -- -- 37
2019-09-26 01:00:00 18 19 Nordeste 23 Nordeste 0 -- -- 29
2019-09-26 00:00:00 17.8 19 Nordeste 28 Nordeste 0 -- -- 29
2019-09-25 23:00:00 17.6 27 Nordeste 35 Nordeste 0 -- -- 29
2019-09-25 22:00:00 17.3 32 Nordeste 36 Nordeste 0 -- -- 26
2019-09-25 21:00:00 16.6 22 Nordeste 27 Nordeste 0 -- -- 22
2019-09-25 20:00:00 17.4 20 Nordeste 28 Nordeste 0 -- -- 33
2019-09-25 19:00:00 22.6 3 Sudeste 12 Sudeste 0 -- -- 33
2019-09-25 18:00:00 21.8 6 Este 19 Nordeste 0 -- -- 37
2019-09-25 17:00:00 20.4 14 Nordeste 24 Nordeste 0 -- -- 38
2019-09-25 16:00:00 20.2 18 Nordeste 33 Este 0 -- -- 40
2019-09-25 15:00:00 19.5 24 Nordeste 39 Este 0 -- -- 33
2019-09-25 14:00:00 19.1 23 Nordeste 31 Nordeste 0 -- -- 42
2019-09-25 13:00:00 19.3 21 Nordeste 41 Este 0 -- -- 48
2019-09-25 12:00:00 17.6 33 Este 45 Nordeste 0 -- -- 53
2019-09-25 11:00:00 17 32 Nordeste 42 Nordeste 0 -- -- 41
2019-09-25 10:00:00 18.5 27 Este 51 Nordeste 0 -- -- 33
2019-09-25 09:00:00 14.4 41 Nordeste 47 Nordeste 0 -- -- 49
2019-09-25 08:00:00 16.8 34 Nordeste 40 Nordeste 0 -- -- 26
2019-09-25 07:00:00 12.6 31 Nordeste 40 Nordeste 0 -- -- 60
2019-09-25 06:00:00 12.1 37 Nordeste 43 Nordeste 0 -- -- 77
2019-09-25 05:00:00 10.6 30 Nordeste 38 Nordeste 0 -- -- 100
2019-09-25 04:00:00 12.5 35 Nordeste 47 Nordeste 0 -- -- 67
2019-09-25 03:00:00 15.7 38 Nordeste 42 Nordeste 0 -- -- 42
2019-09-25 02:00:00 13.3 26 Este 32 Este 0 -- -- 63
2019-09-25 01:00:00 15.8 28 Nordeste 37 Nordeste 0 -- -- 33
2019-09-25 00:00:00 15.8 32 Este 42 Este 0 -- -- 57
2019-09-24 23:00:00 15.1 36 Este 45 Este 0 -- -- 63
2019-09-24 22:00:00 15.2 28 Este 37 Este 0 -- -- 60
2019-09-24 21:00:00 13.6 28 Este 34 Este 0 -- -- 62
2019-09-24 20:00:00 11.9 13 Este 23 Este 0 -- -- 82
2019-09-24 19:00:00 13.7 8 Este 18 Nordeste 0 -- -- 84
2019-09-24 18:00:00 13.2 13 Nordeste 23 Nordeste 0 -- -- 89
2019-09-24 17:00:00 13.9 15 Nordeste 28 Nordeste 0 -- -- 89
2019-09-24 16:00:00 13.6 21 Nordeste 33 Norte 0 -- -- 93
2019-09-24 15:00:00 14.3 21 Nordeste 30 Nordeste 0 -- -- 94
2019-09-24 14:00:00 16.2 13 Nordeste 23 Norte 0 -- -- 87
2019-09-24 13:00:00 14.1 15 Nordeste 31 Norte 0 -- -- 96
2019-09-24 12:00:00 12.7 22 Nordeste 34 Norte 0 -- -- 100
2019-09-24 11:00:00 12.4 22 Nordeste 35 Nordeste 0 -- -- 100
2019-09-24 10:00:00 12 17 Nordeste 30 Nordeste 0 -- -- 100
2019-09-24 09:00:00 11.2 18 Nordeste 25 Nordeste 0 -- -- 100
2019-09-24 08:00:00 11.2 4 Sur 18 Nordeste 0 -- -- 92
2019-09-24 07:00:00 11.5 0 Calma 10 Sur 0 -- -- 91
2019-09-24 06:00:00 10.7 8 Este 16 Nordeste 0 -- -- 98
2019-09-24 05:00:00 11 8 Este 21 Nordeste 0 -- -- 83
2019-09-24 04:00:00 10.3 14 Nordeste 24 Nordeste 0 -- -- 100
2019-09-24 03:00:00 12.5 13 Nordeste 20 Nordeste 0 -- -- 73
2019-09-24 02:00:00 12.1 5 Este 24 Nordeste 0 -- -- 55
2019-09-24 01:00:00 10.3 20 Nordeste 25 Nordeste 0 -- -- 100
2019-09-24 00:00:00 10.8 18 Este 25 Este 0 -- -- 95
2019-09-23 23:00:00 12.8 22 Nordeste 27 Nordeste 0 -- -- 66
2019-09-23 22:00:00 11 22 Nordeste 32 Nordeste 0 -- -- 94
2019-09-23 21:00:00 11.9 24 Norte 29 Nordeste 0 -- -- 89
2019-09-23 20:00:00 13.5 17 Norte 26 Norte 0 -- -- 85
2019-09-23 19:00:00 15.1 14 Norte 22 Noroeste 0 -- -- 86
2019-09-23 18:00:00 15.7 13 Norte 20 Noroeste 0 -- -- 84
2019-09-23 17:00:00 15.3 12 Norte 21 Nordeste 0 -- -- 94
2019-09-23 16:00:00 21.1 7 Oeste 18 Sudoeste 0 -- -- 69
2019-09-23 15:00:00 17.8 7 Nordeste 17 Nordeste 0 -- -- 84
2019-09-23 14:00:00 18.6 8 Este 17 Nordeste 0 -- -- 80
2019-09-23 13:00:00 19.7 10 Nordeste 17 Este 0 -- -- 71
2019-09-23 12:00:00 18.4 6 Norte 11 Norte 0 -- -- 73
2019-09-23 11:00:00 18.7 4 Sudoeste 10 Sur 0 -- -- 67
2019-09-23 10:00:00 17.3 5 Noroeste 13 Norte 0 -- -- 66
2019-09-23 09:00:00 16.3 6 Norte 13 Sudoeste 0 -- -- 68
2019-09-23 08:00:00 15.3 11 Sudoeste 13 Norte 0 -- -- 73
2019-09-23 07:00:00 13.9 8 Nordeste 24 Nordeste 0 -- -- 77
2019-09-23 06:00:00 12.3 24 Nordeste 36 Nordeste 0 -- -- 96
2019-09-23 05:00:00 13 31 Nordeste 42 Nordeste 0 -- -- 93
2019-09-23 04:00:00 13.4 33 Nordeste 40 Nordeste 0 -- -- 92
2019-09-23 03:00:00 13.8 32 Nordeste 39 Nordeste 0 -- -- 92
2019-09-23 02:00:00 13.3 33 Nordeste 42 Nordeste 0 -- -- 100
2019-09-23 01:00:00 13.7 31 Nordeste 42 Nordeste 0.2 -- -- 100
2019-09-23 00:00:00 14.5 28 Nordeste 42 Nordeste 0 -- -- 100
2019-09-22 23:00:00 14.8 35 Nordeste 45 Nordeste 0.2 -- -- 100
2019-09-22 22:00:00 15.1 35 Nordeste 44 Nordeste 0.2 -- -- 100
2019-09-22 21:00:00 15.3 30 Nordeste 50 Nordeste 0.4 -- -- 100
2019-09-22 20:00:00 15.4 25 Nordeste 35 Nordeste 0 -- -- 100
2019-09-22 19:00:00 16.6 15 Nordeste 25 Norte 0 -- -- 90
2019-09-22 18:00:00 18.1 16 Nordeste 29 Nordeste 0 -- -- 85
2019-09-22 17:00:00 18.4 19 Nordeste 34 Nordeste 0 -- -- 86
2019-09-22 16:00:00 18.7 19 Nordeste 32 Este 0 -- -- 85
2019-09-22 15:00:00 20.1 19 Este 33 Nordeste 0 -- -- 79
2019-09-22 14:00:00 19.4 17 Nordeste 30 Nordeste 0 -- -- 81
2019-09-22 13:00:00 19.4 17 Este 30 Nordeste 0 -- -- 83
2019-09-22 12:00:00 17.3 21 Nordeste 36 Nordeste 0 -- -- 88
2019-09-22 11:00:00 17.2 25 Nordeste 37 Nordeste 0 -- -- 87
2019-09-22 10:00:00 16.7 27 Nordeste 38 Nordeste 0 -- -- 90
2019-09-22 09:00:00 15 30 Nordeste 40 Nordeste 0 -- -- 100
2019-09-22 08:00:00 14.4 32 Nordeste 44 Nordeste 0 -- -- 100
2019-09-22 07:00:00 13.7 36 Nordeste 45 Nordeste 0 -- -- 98
2019-09-22 06:00:00 13.7 38 Nordeste 44 Nordeste 0 -- -- 94
2019-09-22 05:00:00 14.4 41 Nordeste 49 Nordeste 0 -- -- 81
2019-09-22 04:00:00 14.7 42 Nordeste 47 Nordeste 0 -- -- 84
2019-09-22 03:00:00 14.2 40 Nordeste 46 Nordeste 0 -- -- 79
2019-09-22 02:00:00 13.6 37 Nordeste 43 Nordeste 0 -- -- 67
2019-09-22 01:00:00 13.9 34 Nordeste 41 Nordeste 0 -- -- 77
2019-09-22 00:00:00 14.5 30 Nordeste 36 Nordeste 0 -- -- 72
2019-09-21 23:00:00 14.8 28 Nordeste 33 Nordeste 0 -- -- 50
2019-09-21 22:00:00 14.2 23 Nordeste 26 Nordeste 0 -- -- 72
2019-09-21 21:00:00 14.3 22 Nordeste 27 Nordeste 0 -- -- 73
2019-09-21 20:00:00 15.8 22 Norte 26 Norte 0 -- -- 65
2019-09-21 19:00:00 17 17 Norte 24 Norte 0 -- -- 65
2019-09-21 18:00:00 20.6 14 Noroeste 31 Noroeste 0 -- -- 60
2019-09-21 17:00:00 22.6 17 Oeste 28 Noroeste 0 -- -- 65
2019-09-21 16:00:00 23.5 12 Oeste 24 Oeste 0 -- -- 60
2019-09-21 15:00:00 22.9 10 Oeste 20 Oeste 0 -- -- 56
2019-09-21 14:00:00 22.6 10 Oeste 20 Noroeste 0 -- -- 55
2019-09-21 13:00:00 21.8 9 Oeste 20 Oeste 0 -- -- 57
2019-09-21 12:00:00 20.4 12 Noroeste 20 Oeste 0 -- -- 51
2019-09-21 11:00:00 18.4 5 Noroeste 22 Noroeste 0 -- -- 46
2019-09-21 10:00:00 17.1 14 Noroeste 17 Noroeste 0 -- -- 32
2019-09-21 09:00:00 17.3 12 Noroeste 18 Noroeste 0 -- -- 22
2019-09-21 08:00:00 17.6 17 Oeste 22 Oeste 0 -- -- 18
2019-09-21 07:00:00 16.5 12 Oeste 18 Oeste 0 -- -- 28
2019-09-21 06:00:00 16.4 5 Oeste 17 Oeste 0 -- -- 32
2019-09-21 05:00:00 16.8 15 Noroeste 19 Noroeste 0 -- -- 23
2019-09-21 04:00:00 16.8 15 Noroeste 26 Noroeste 0 -- -- 22
2019-09-21 03:00:00 16.6 10 Noroeste 19 Noroeste 0 -- -- 36
2019-09-21 02:00:00 17.6 14 Noroeste 20 Oeste 0 -- -- 24
2019-09-21 01:00:00 17.4 16 Noroeste 20 Oeste 0 -- -- 29
2019-09-21 00:00:00 17.6 13 Noroeste 18 Oeste 0 -- -- 21
2019-09-20 23:00:00 17.7 14 Noroeste 20 Noroeste 0 -- -- 23
2019-09-20 22:00:00 16.8 13 Noroeste 20 Noroeste 0 -- -- 29
2019-09-20 21:00:00 17.8 15 Noroeste 17 Noroeste 0 -- -- 22
2019-09-20 20:00:00 20.1 9 Oeste 24 Oeste 0 -- -- 33
2019-09-20 19:00:00 23.5 18 Oeste 26 Oeste 0 -- -- 22
2019-09-20 18:00:00 21.1 10 Noroeste 24 Noroeste 0 -- -- 40
2019-09-20 17:00:00 23.8 14 Oeste 22 Noroeste 0 -- -- 57
2019-09-20 16:00:00 23.2 12 Oeste 23 Oeste 0 -- -- 60
2019-09-20 15:00:00 23.3 10 Noroeste 28 Sudeste 0 -- -- 61
2019-09-20 14:00:00 20.7 7 Norte 21 Nordeste 0 -- -- 58
2019-09-20 13:00:00 19.5 13 Nordeste 26 Nordeste 0 -- -- 59
2019-09-20 12:00:00 20.3 12 Este 21 Nordeste 0 -- -- 59
2019-09-20 11:00:00 18.8 5 Este 20 Este 0 -- -- 61
2019-09-20 10:00:00 17.2 11 Este 16 Este 0 -- -- 66
2019-09-20 09:00:00 16.8 5 Nordeste 17 Nordeste 0 -- -- 55
2019-09-20 08:00:00 14.1 13 Nordeste 23 Nordeste 0 -- -- 71
2019-09-20 07:00:00 13.6 20 Nordeste 25 Nordeste 0 -- -- 79
2019-09-20 06:00:00 13.7 23 Nordeste 25 Nordeste 0 -- -- 78
2019-09-20 05:00:00 14.9 11 Norte 28 Nordeste 0 -- -- 62
2019-09-20 04:00:00 14.2 25 Nordeste 35 Nordeste 0 -- -- 73
2019-09-20 03:00:00 14.4 31 Nordeste 36 Nordeste 0 -- -- 69
2019-09-20 02:00:00 15 28 Nordeste 35 Nordeste 0 -- -- 42
2019-09-20 01:00:00 15.8 28 Nordeste 34 Nordeste 0 -- -- 28
2019-09-20 00:00:00 15.9 29 Nordeste 32 Nordeste 0 -- -- 21
2019-09-19 23:00:00 16.3 28 Nordeste 32 Nordeste 0 -- -- 25
2019-09-19 22:00:00 16.7 27 Nordeste 35 Nordeste 0 -- -- 25
2019-09-19 21:00:00 16.6 23 Nordeste 26 Nordeste 0 -- -- 28
2019-09-19 20:00:00 16.7 23 Nordeste 28 Nordeste 0 -- -- 30
2019-09-19 19:00:00 18.4 21 Nordeste 24 Nordeste 0 -- -- 37
2019-09-19 18:00:00 21.4 13 Norte 19 Norte 0 -- -- 28
2019-09-19 17:00:00 23.9 12 Noroeste 22 Noroeste 0 -- -- 42
2019-09-19 16:00:00 22.1 10 Este 19 Este 0 -- -- 47
2019-09-19 15:00:00 23.6 8 Norte 17 Norte 0 -- -- 31
2019-09-19 14:00:00 21.7 10 Nordeste 21 Nordeste 0 -- -- 46
2019-09-19 13:00:00 21.9 9 Norte 15 Norte 0 -- -- 35
2019-09-19 12:00:00 22.3 10 Nordeste 18 Nordeste 0 -- -- 34
2019-09-19 11:00:00 22.2 5 Nordeste 13 Norte 0 -- -- 28
2019-09-19 10:00:00 19.7 10 Norte 15 Norte 0 -- -- 22
2019-09-19 09:00:00 19.6 5 Oeste 9 Oeste 0 -- -- 20
2019-09-19 08:00:00 19.1 3 Oeste 11 Sudeste 0 -- -- 17
2019-09-19 07:00:00 18.9 4 Sudeste 15 Sudeste 0 -- -- 17
2019-09-19 06:00:00 18.1 17 Sudeste 20 Sudeste 0 -- -- 20
2019-09-19 05:00:00 17 17 Este 30 Este 0 -- -- 24
2019-09-19 04:00:00 17.6 26 Nordeste 29 Nordeste 0 -- -- 23
2019-09-19 03:00:00 17.5 26 Nordeste 30 Nordeste 0 -- -- 24
2019-09-19 02:00:00 18.2 21 Nordeste 27 Nordeste 0 -- -- 23
2019-09-19 01:00:00 18.1 24 Nordeste 29 Nordeste 0 -- -- 22
2019-09-19 00:00:00 18.3 25 Nordeste 27 Nordeste 0 -- -- 18
2019-09-18 23:00:00 18.5 22 Nordeste 27 Nordeste 0 -- -- 16
2019-09-18 22:00:00 18.1 18 Nordeste 20 Nordeste 0 -- -- 16
2019-09-18 21:00:00 18.9 18 Norte 21 Norte 0 -- -- 15
2019-09-18 20:00:00 19.7 13 Norte 15 Norte 0 -- -- 17
2019-09-18 19:00:00 22.8 8 Oeste 15 Noroeste 0 -- -- 58
2019-09-18 18:00:00 22.7 3 Nordeste 16 Noroeste 0 -- -- 61
2019-09-18 17:00:00 23.7 8 Oeste 18 Oeste 0 -- -- 53
2019-09-18 16:00:00 24.6 9 Oeste 17 Oeste 0 -- -- 52
2019-09-18 15:00:00 24.6 7 Oeste 20 Este 0 -- -- 51
2019-09-18 14:00:00 -- 5 Sudoeste 15 Oeste 0 -- -- --
2019-09-18 13:00:00 24.5 7 Oeste 19 Noroeste 0 -- -- 34
2019-09-18 12:00:00 23.8 6 Oeste 13 Noroeste 0 -- -- 19
2019-09-18 11:00:00 21.7 4 Sudoeste 9 Norte 0 -- -- 17
2019-09-18 10:00:00 20.7 3 Noroeste 7 Sudoeste 0 -- -- 15
2019-09-18 09:00:00 19.6 5 Oeste 8 Oeste 0 -- -- 17
2019-09-18 08:00:00 19.7 4 Oeste 14 Noroeste 0 -- -- 13
2019-09-18 07:00:00 20.1 9 Noroeste 22 Noroeste 0 -- -- 13
2019-09-18 06:00:00 20.2 14 Noroeste 20 Noroeste 0 -- -- 13
2019-09-18 05:00:00 20.4 15 Noroeste 23 Noroeste 0 -- -- 13
2019-09-18 04:00:00 20.4 18 Noroeste 22 Noroeste 0 -- -- 13
2019-09-18 03:00:00 19.5 14 Noroeste 21 Noroeste 0 -- -- 15
2019-09-18 02:00:00 19.7 19 Noroeste 24 Noroeste 0 -- -- 13
2019-09-18 01:00:00 19.9 21 Noroeste 23 Noroeste 0 -- -- 13
2019-09-18 00:00:00 20.3 21 Noroeste 24 Noroeste 0 -- -- 12
2019-09-17 23:00:00 21.1 23 Noroeste 28 Noroeste 0 -- -- 11
2019-09-17 22:00:00 20.9 25 Noroeste 31 Noroeste 0 -- -- 12
2019-09-17 21:00:00 21.4 26 Noroeste 30 Noroeste 0 -- -- 11
2019-09-17 20:00:00 21.9 25 Noroeste 34 Oeste 0 -- -- 11
2019-09-15 17:00:00 -- -- -- -- -- -- -- -- --
2019-09-15 16:00:00 28.8 12 Oeste 19 Sudoeste 0 -- -- 17
2019-09-15 15:00:00 28.9 11 Sudoeste 19 Oeste 0 -- -- 33
2019-09-15 14:00:00 28.6 11 Sudoeste 18 Oeste 0 -- -- 15
2019-09-15 13:00:00 25.6 10 Oeste 15 Oeste 0 -- -- 35
2019-09-15 12:00:00 25 6 Sudoeste 12 Sur 0 -- -- 25
2019-09-15 11:00:00 24.2 7 Sudoeste 12 Sudoeste 0 -- -- 16
2019-09-15 10:00:00 23.1 5 Sudeste 18 Sur 0 -- -- 20
2019-09-15 09:00:00 19.9 8 Sudeste 16 Sudeste 0 -- -- 24
2019-09-15 08:00:00 17.9 15 Sudeste 21 Sudeste 0 -- -- 25
2019-09-15 07:00:00 17.8 22 Sudeste 25 Sudeste 0 -- -- 30
2019-09-15 06:00:00 16.3 21 Sudeste 25 Este 0 -- -- 41
2019-09-15 05:00:00 15.8 17 Este 22 Este 0 -- -- 46
2019-09-15 04:00:00 18 10 Este 14 Sur 0 -- -- 31
2019-09-15 03:00:00 18.8 7 Sudeste 10 Este 0 -- -- 22
2019-09-15 02:00:00 18.7 6 Este 9 Este 0 -- -- 21
2019-09-15 01:00:00 18.5 4 Este 8 Este 0 -- -- 21
2019-09-15 00:00:00 18.4 4 Sudeste 11 Sur 0 -- -- 20